sensor_id;sensor_type;location;lat;lon;timestamp;pressure;altitude;pressure_sealevel;temperature;humidity
76128;BME280;64873;50.102;14.434;2023-02-15T00:01:17;101016.66;;;4.01;72.62
76128;BME280;64873;50.102;14.434;2023-02-15T00:03:43;101010.59;;;4.11;72.25
76128;BME280;64873;50.102;14.434;2023-02-15T00:06:08;101006.22;;;3.79;72.72
76128;BME280;64873;50.102;14.434;2023-02-15T00:08:33;101013.00;;;3.72;73.14
76128;BME280;64873;50.102;14.434;2023-02-15T00:11:13;101015.13;;;3.78;73.33
76128;BME280;64873;50.102;14.434;2023-02-15T00:13:39;101007.41;;;3.65;73.19
76128;BME280;64873;50.102;14.434;2023-02-15T00:16:10;101008.75;;;3.60;73.71
76128;BME280;64873;50.102;14.434;2023-02-15T00:18:37;101007.44;;;3.75;73.22
76128;BME280;64873;50.102;14.434;2023-02-15T00:21:09;101007.53;;;3.64;73.15
76128;BME280;64873;50.102;14.434;2023-02-15T00:23:35;101002.69;;;3.69;73.10
76128;BME280;64873;50.102;14.434;2023-02-15T00:26:09;101005.53;;;3.77;73.00
76128;BME280;64873;50.102;14.434;2023-02-15T00:28:35;101003.53;;;3.48;73.64
76128;BME280;64873;50.102;14.434;2023-02-15T00:31:09;101012.47;;;3.36;73.75
76128;BME280;64873;50.102;14.434;2023-02-15T00:33:36;101004.41;;;3.17;74.50
76128;BME280;64873;50.102;14.434;2023-02-15T00:36:03;101006.81;;;3.09;74.58
76128;BME280;64873;50.102;14.434;2023-02-15T00:38:29;101006.66;;;3.21;74.81
76128;BME280;64873;50.102;14.434;2023-02-15T00:40:56;100998.69;;;3.54;73.79
76128;BME280;64873;50.102;14.434;2023-02-15T00:43:22;101003.75;;;3.45;73.77
76128;BME280;64873;50.102;14.434;2023-02-15T00:45:48;101000.69;;;3.61;73.00
76128;BME280;64873;50.102;14.434;2023-02-15T00:48:14;100997.38;;;3.69;72.57
76128;BME280;64873;50.102;14.434;2023-02-15T00:50:39;100992.44;;;3.55;73.22
76128;BME280;64873;50.102;14.434;2023-02-15T00:53:05;100998.25;;;3.48;73.54
76128;BME280;64873;50.102;14.434;2023-02-15T00:55:30;101001.19;;;3.55;73.57
76128;BME280;64873;50.102;14.434;2023-02-15T00:57:56;100996.25;;;3.62;73.30
76128;BME280;64873;50.102;14.434;2023-02-15T01:00:21;100990.19;;;3.71;73.17
76128;BME280;64873;50.102;14.434;2023-02-15T01:02:47;100990.50;;;3.57;72.80
76128;BME280;64873;50.102;14.434;2023-02-15T01:05:12;100991.16;;;3.70;72.70
76128;BME280;64873;50.102;14.434;2023-02-15T01:07:38;100996.44;;;3.70;72.57
76128;BME280;64873;50.102;14.434;2023-02-15T01:10:05;100989.22;;;3.72;72.98
76128;BME280;64873;50.102;14.434;2023-02-15T01:12:32;100994.38;;;3.53;72.92
76128;BME280;64873;50.102;14.434;2023-02-15T01:14:57;100982.25;;;3.29;73.47
76128;BME280;64873;50.102;14.434;2023-02-15T01:17:23;100986.50;;;3.41;73.32
76128;BME280;64873;50.102;14.434;2023-02-15T01:19:48;100982.53;;;3.15;74.22
76128;BME280;64873;50.102;14.434;2023-02-15T01:22:14;100983.94;;;3.30;74.11
76128;BME280;64873;50.102;14.434;2023-02-15T01:24:39;100983.94;;;3.30;73.72
76128;BME280;64873;50.102;14.434;2023-02-15T01:27:04;100976.19;;;3.17;73.98
76128;BME280;64873;50.102;14.434;2023-02-15T01:29:30;100975.53;;;3.25;74.00
76128;BME280;64873;50.102;14.434;2023-02-15T01:31:56;100969.50;;;3.34;73.90
76128;BME280;64873;50.102;14.434;2023-02-15T01:34:21;100958.94;;;3.34;73.87
76128;BME280;64873;50.102;14.434;2023-02-15T01:36:46;100962.00;;;3.39;73.90
76128;BME280;64873;50.102;14.434;2023-02-15T01:39:12;100961.06;;;3.40;73.42
76128;BME280;64873;50.102;14.434;2023-02-15T01:41:37;100953.13;;;3.40;73.13
76128;BME280;64873;50.102;14.434;2023-02-15T01:44:40;100950.66;;;3.48;73.49
76128;BME280;64873;50.102;14.434;2023-02-15T01:46:51;100958.47;;;3.29;74.07
76128;BME280;64873;50.102;14.434;2023-02-15T01:49:20;100945.50;;;3.26;73.81
76128;BME280;64873;50.102;14.434;2023-02-15T01:51:50;100953.38;;;3.37;73.97
76128;BME280;64873;50.102;14.434;2023-02-15T01:54:21;100951.13;;;3.12;74.70
76128;BME280;64873;50.102;14.434;2023-02-15T01:56:49;100942.97;;;3.04;74.89
76128;BME280;64873;50.102;14.434;2023-02-15T01:59:19;100946.06;;;3.09;74.54
76128;BME280;64873;50.102;14.434;2023-02-15T02:01:46;100938.34;;;3.38;73.73
76128;BME280;64873;50.102;14.434;2023-02-15T02:04:18;100935.25;;;3.33;74.16
76128;BME280;64873;50.102;14.434;2023-02-15T02:06:49;100938.69;;;3.24;74.03
76128;BME280;64873;50.102;14.434;2023-02-15T02:09:15;100933.22;;;3.36;73.43
76128;BME280;64873;50.102;14.434;2023-02-15T02:11:41;100932.44;;;3.25;74.09
76128;BME280;64873;50.102;14.434;2023-02-15T02:14:08;100931.66;;;3.34;73.69
76128;BME280;64873;50.102;14.434;2023-02-15T02:16:53;100934.19;;;3.35;73.73
76128;BME280;64873;50.102;14.434;2023-02-15T02:27:47;100922.25;;;2.99;75.26
76128;BME280;64873;50.102;14.434;2023-02-15T02:30:37;100920.03;;;3.04;74.66
76128;BME280;64873;50.102;14.434;2023-02-15T02:38:42;100921.72;;;3.26;73.79
76128;BME280;64873;50.102;14.434;2023-02-15T02:44:41;100915.63;;;3.26;74.12
76128;BME280;64873;50.102;14.434;2023-02-15T02:46:48;100920.63;;;3.08;74.73
76128;BME280;64873;50.102;14.434;2023-02-15T02:49:15;100917.28;;;3.06;74.55
76128;BME280;64873;50.102;14.434;2023-02-15T02:51:41;100922.34;;;2.98;74.61
76128;BME280;64873;50.102;14.434;2023-02-15T02:54:07;100923.13;;;2.88;74.36
76128;BME280;64873;50.102;14.434;2023-02-15T02:56:40;100922.41;;;2.86;74.51
76128;BME280;64873;50.102;14.434;2023-02-15T02:59:20;100929.44;;;2.76;75.26
76128;BME280;64873;50.102;14.434;2023-02-15T03:04:25;100916.63;;;2.60;75.13
76128;BME280;64873;50.102;14.434;2023-02-15T03:07:06;100923.59;;;2.61;75.17
76128;BME280;64873;50.102;14.434;2023-02-15T03:09:38;100922.25;;;2.67;75.43
76128;BME280;64873;50.102;14.434;2023-02-15T03:12:19;100919.13;;;2.62;75.67
76128;BME280;64873;50.102;14.434;2023-02-15T03:14:50;100913.34;;;2.68;74.95
76128;BME280;64873;50.102;14.434;2023-02-15T03:17:19;100917.56;;;2.71;75.24
76128;BME280;64873;50.102;14.434;2023-02-15T03:19:48;100918.63;;;2.68;75.20
76128;BME280;64873;50.102;14.434;2023-02-15T03:22:21;100912.63;;;2.77;74.78
76128;BME280;64873;50.102;14.434;2023-02-15T03:24:54;100919.47;;;2.68;75.64
76128;BME280;64873;50.102;14.434;2023-02-15T03:27:24;100917.84;;;2.88;74.92
76128;BME280;64873;50.102;14.434;2023-02-15T03:29:54;100910.94;;;2.76;74.89
76128;BME280;64873;50.102;14.434;2023-02-15T03:32:23;100904.38;;;2.91;74.38
76128;BME280;64873;50.102;14.434;2023-02-15T03:34:51;100901.31;;;2.54;75.34
76128;BME280;64873;50.102;14.434;2023-02-15T03:37:26;100894.97;;;2.34;76.33
76128;BME280;64873;50.102;14.434;2023-02-15T03:39:57;100897.53;;;2.36;76.67
76128;BME280;64873;50.102;14.434;2023-02-15T03:42:49;100902.81;;;2.25;77.57
76128;BME280;64873;50.102;14.434;2023-02-15T03:45:24;100895.28;;;2.09;77.52
76128;BME280;64873;50.102;14.434;2023-02-15T03:47:52;100898.16;;;2.17;77.27
76128;BME280;64873;50.102;14.434;2023-02-15T03:50:31;100890.91;;;2.42;76.24
76128;BME280;64873;50.102;14.434;2023-02-15T03:53:18;100893.25;;;2.56;76.13
76128;BME280;64873;50.102;14.434;2023-02-15T03:55:50;100883.47;;;2.47;76.25
76128;BME280;64873;50.102;14.434;2023-02-15T03:58:18;100885.13;;;2.48;75.87
76128;BME280;64873;50.102;14.434;2023-02-15T04:01:05;100897.53;;;2.36;76.72
76128;BME280;64873;50.102;14.434;2023-02-15T04:04:06;100894.09;;;2.56;76.05
76128;BME280;64873;50.102;14.434;2023-02-15T04:06:32;100892.94;;;2.38;75.93
76128;BME280;64873;50.102;14.434;2023-02-15T04:08:58;100901.13;;;2.35;76.35
76128;BME280;64873;50.102;14.434;2023-02-15T04:11:42;100901.13;;;2.35;76.33
76128;BME280;64873;50.102;14.434;2023-02-15T04:14:07;100900.97;;;2.48;75.93
76128;BME280;64873;50.102;14.434;2023-02-15T04:16:51;100880.03;;;2.35;75.45
76128;BME280;64873;50.102;14.434;2023-02-15T04:19:17;100886.59;;;2.40;76.08
76128;BME280;64873;50.102;14.434;2023-02-15T04:22:01;100903.88;;;2.33;75.59
76128;BME280;64873;50.102;14.434;2023-02-15T04:24:45;100896.38;;;2.06;76.35
76128;BME280;64873;50.102;14.434;2023-02-15T04:27:29;100892.66;;;1.98;77.06
76128;BME280;64873;50.102;14.434;2023-02-15T04:29:57;100888.69;;;2.03;76.79
76128;BME280;64873;50.102;14.434;2023-02-15T04:32:23;100884.69;;;2.31;76.35
76128;BME280;64873;50.102;14.434;2023-02-15T04:34:48;100884.19;;;2.37;75.65
76128;BME280;64873;50.102;14.434;2023-02-15T04:37:13;100884.75;;;2.52;75.54
76128;BME280;64873;50.102;14.434;2023-02-15T04:39:39;100897.84;;;2.43;75.59
76128;BME280;64873;50.102;14.434;2023-02-15T04:42:04;100892.16;;;2.15;76.37
76128;BME280;64873;50.102;14.434;2023-02-15T04:44:30;100891.66;;;2.21;75.84
76128;BME280;64873;50.102;14.434;2023-02-15T04:46:55;100885.34;;;2.01;76.44
76128;BME280;64873;50.102;14.434;2023-02-15T04:49:21;100891.91;;;2.29;76.50
76128;BME280;64873;50.102;14.434;2023-02-15T04:51:46;100891.28;;;2.37;76.37
76128;BME280;64873;50.102;14.434;2023-02-15T04:54:11;100894.22;;;2.11;77.00
76128;BME280;64873;50.102;14.434;2023-02-15T04:56:37;100892.75;;;2.19;76.54
76128;BME280;64873;50.102;14.434;2023-02-15T04:59:03;100895.66;;;1.93;77.04
76128;BME280;64873;50.102;14.434;2023-02-15T05:01:28;100896.50;;;1.94;77.28
76128;BME280;64873;50.102;14.434;2023-02-15T05:03:54;100883.06;;;2.08;76.90
76128;BME280;64873;50.102;14.434;2023-02-15T05:06:19;100882.72;;;2.01;76.86
76128;BME280;64873;50.102;14.434;2023-02-15T05:08:45;100885.22;;;2.03;77.62
76128;BME280;64873;50.102;14.434;2023-02-15T05:11:10;100886.91;;;2.04;76.87
76128;BME280;64873;50.102;14.434;2023-02-15T05:13:36;100885.09;;;1.93;77.26
76128;BME280;64873;50.102;14.434;2023-02-15T05:16:01;100883.91;;;1.86;77.67
76128;BME280;64873;50.102;14.434;2023-02-15T05:18:27;100888.00;;;1.79;77.36
76128;BME280;64873;50.102;14.434;2023-02-15T05:20:53;100884.03;;;1.73;78.41
76128;BME280;64873;50.102;14.434;2023-02-15T05:23:18;100880.78;;;2.03;77.38
76128;BME280;64873;50.102;14.434;2023-02-15T05:25:48;100881.06;;;1.89;77.56
76128;BME280;64873;50.102;14.434;2023-02-15T05:28:33;100882.38;;;1.95;77.84
76128;BME280;64873;50.102;14.434;2023-02-15T05:31:06;100883.09;;;1.85;76.59
76128;BME280;64873;50.102;14.434;2023-02-15T05:33:33;100888.47;;;1.73;77.41
76128;BME280;64873;50.102;14.434;2023-02-15T05:36:00;100883.81;;;1.76;77.63
76128;BME280;64873;50.102;14.434;2023-02-15T05:38:26;100881.16;;;1.87;76.96
76128;BME280;64873;50.102;14.434;2023-02-15T05:40:52;100888.84;;;1.79;77.31
76128;BME280;64873;50.102;14.434;2023-02-15T05:43:17;100893.06;;;1.82;77.09
76128;BME280;64873;50.102;14.434;2023-02-15T05:45:51;100887.66;;;1.95;77.01
76128;BME280;64873;50.102;14.434;2023-02-15T05:48:17;100888.00;;;1.90;76.94
76128;BME280;64873;50.102;14.434;2023-02-15T05:50:43;100892.66;;;1.75;76.95
76128;BME280;64873;50.102;14.434;2023-02-15T05:53:09;100890.28;;;1.83;77.63
76128;BME280;64873;50.102;14.434;2023-02-15T05:55:37;100894.59;;;1.96;76.98
76128;BME280;64873;50.102;14.434;2023-02-15T05:58:04;100885.59;;;1.98;77.51
76128;BME280;64873;50.102;14.434;2023-02-15T06:00:29;100890.84;;;2.09;79.80
76128;BME280;64873;50.102;14.434;2023-02-15T06:02:55;100895.78;;;2.03;79.53
76128;BME280;64873;50.102;14.434;2023-02-15T06:05:20;100899.38;;;2.02;77.65
76128;BME280;64873;50.102;14.434;2023-02-15T06:07:45;100898.88;;;1.97;76.37
76128;BME280;64873;50.102;14.434;2023-02-15T06:10:11;100895.56;;;1.83;76.48
76128;BME280;64873;50.102;14.434;2023-02-15T06:12:36;100908.59;;;1.85;77.25
76128;BME280;64873;50.102;14.434;2023-02-15T06:15:03;100898.31;;;1.82;76.92
76128;BME280;64873;50.102;14.434;2023-02-15T06:17:28;100910.88;;;1.90;77.70
76128;BME280;64873;50.102;14.434;2023-02-15T06:19:54;100908.97;;;1.92;77.09
76128;BME280;64873;50.102;14.434;2023-02-15T06:22:19;100910.41;;;1.96;76.46
76128;BME280;64873;50.102;14.434;2023-02-15T06:24:46;100912.78;;;2.10;75.70
76128;BME280;64873;50.102;14.434;2023-02-15T06:27:11;100916.16;;;1.90;76.70
76128;BME280;64873;50.102;14.434;2023-02-15T06:29:36;100919.75;;;1.89;76.76
76128;BME280;64873;50.102;14.434;2023-02-15T06:32:03;100921.06;;;1.83;76.67
76128;BME280;64873;50.102;14.434;2023-02-15T06:34:28;100924.91;;;1.79;76.65
76128;BME280;64873;50.102;14.434;2023-02-15T06:36:54;100923.47;;;1.97;75.77
76128;BME280;64873;50.102;14.434;2023-02-15T06:39:19;100929.34;;;1.90;77.03
76128;BME280;64873;50.102;14.434;2023-02-15T06:41:44;100922.50;;;1.65;77.33
76128;BME280;64873;50.102;14.434;2023-02-15T06:44:10;100921.16;;;1.48;78.01
76128;BME280;64873;50.102;14.434;2023-02-15T06:46:35;100927.53;;;1.10;78.52
76128;BME280;64873;50.102;14.434;2023-02-15T06:49:01;100927.41;;;1.69;78.75
76128;BME280;64873;50.102;14.434;2023-02-15T06:51:26;100932.78;;;1.68;77.67
76128;BME280;64873;50.102;14.434;2023-02-15T06:53:52;100936.75;;;1.73;76.58
76128;BME280;64873;50.102;14.434;2023-02-15T06:56:17;100943.00;;;1.83;76.33
76128;BME280;64873;50.102;14.434;2023-02-15T06:58:43;100946.22;;;1.76;77.03
76128;BME280;64873;50.102;14.434;2023-02-15T07:01:11;100941.06;;;1.85;77.38
76128;BME280;64873;50.102;14.434;2023-02-15T07:03:36;100948.63;;;1.90;76.17
76128;BME280;64873;50.102;14.434;2023-02-15T07:06:03;100947.66;;;1.80;76.23
76128;BME280;64873;50.102;14.434;2023-02-15T07:08:31;100942.56;;;1.32;77.59
76128;BME280;64873;50.102;14.434;2023-02-15T07:10:56;100942.13;;;1.60;77.98
76128;BME280;64873;50.102;14.434;2023-02-15T07:13:42;100938.78;;;1.81;77.15
76128;BME280;64873;50.102;14.434;2023-02-15T07:16:10;100940.47;;;1.71;76.79
76128;BME280;64873;50.102;14.434;2023-02-15T07:18:36;100939.16;;;1.76;77.10
76128;BME280;64873;50.102;14.434;2023-02-15T07:21:01;100935.28;;;1.36;77.73
76128;BME280;64873;50.102;14.434;2023-02-15T07:23:27;100929.09;;;1.59;77.25
76128;BME280;64873;50.102;14.434;2023-02-15T07:25:57;100935.06;;;1.50;77.56
76128;BME280;64873;50.102;14.434;2023-02-15T07:28:22;100930.75;;;1.60;77.27
76128;BME280;64873;50.102;14.434;2023-02-15T07:30:48;100932.91;;;1.55;77.94
76128;BME280;64873;50.102;14.434;2023-02-15T07:33:13;100922.25;;;1.10;79.01
76128;BME280;64873;50.102;14.434;2023-02-15T07:35:55;100917.16;;;1.20;78.85
76128;BME280;64873;50.102;14.434;2023-02-15T07:38:23;100907.44;;;1.09;79.06
76128;BME280;64873;50.102;14.434;2023-02-15T07:40:50;100909.88;;;1.23;79.28
76128;BME280;64873;50.102;14.434;2023-02-15T07:43:15;100906.09;;;1.72;78.82
76128;BME280;64873;50.102;14.434;2023-02-15T07:45:40;100899.47;;;1.44;77.79
76128;BME280;64873;50.102;14.434;2023-02-15T07:48:06;100891.47;;;1.57;78.15
76128;BME280;64873;50.102;14.434;2023-02-15T07:50:32;100892.66;;;1.64;77.93
76128;BME280;64873;50.102;14.434;2023-02-15T07:52:58;100885.72;;;1.52;78.43
76128;BME280;64873;50.102;14.434;2023-02-15T07:55:24;100883.81;;;1.54;78.96
76128;BME280;64873;50.102;14.434;2023-02-15T07:57:50;100888.09;;;1.44;78.80
76128;BME280;64873;50.102;14.434;2023-02-15T08:00:18;100878.28;;;2.02;78.86
76128;BME280;64873;50.102;14.434;2023-02-15T08:02:50;100889.06;;;1.87;77.87
76128;BME280;64873;50.102;14.434;2023-02-15T08:05:36;100885.09;;;1.93;76.83
76128;BME280;64873;50.102;14.434;2023-02-15T08:08:01;100892.19;;;1.59;76.92
76128;BME280;64873;50.102;14.434;2023-02-15T08:10:27;100892.69;;;1.53;77.72
76128;BME280;64873;50.102;14.434;2023-02-15T08:13:12;100887.03;;;1.80;76.49
76128;BME280;64873;50.102;14.434;2023-02-15T08:15:38;100891.72;;;1.65;76.86
76128;BME280;64873;50.102;14.434;2023-02-15T08:18:03;100899.16;;;1.60;77.18
76128;BME280;64873;50.102;14.434;2023-02-15T08:20:29;100889.09;;;1.76;76.66
76128;BME280;64873;50.102;14.434;2023-02-15T08:22:54;100890.75;;;1.55;76.53
76128;BME280;64873;50.102;14.434;2023-02-15T08:25:20;100882.44;;;1.15;78.11
76128;BME280;64873;50.102;14.434;2023-02-15T08:27:45;100884.56;;;1.10;78.46
76128;BME280;64873;50.102;14.434;2023-02-15T08:30:11;100886.16;;;1.34;79.05
76128;BME280;64873;50.102;14.434;2023-02-15T08:32:37;100884.75;;;1.42;77.71
76128;BME280;64873;50.102;14.434;2023-02-15T08:35:02;100881.38;;;1.40;77.38
76128;BME280;64873;50.102;14.434;2023-02-15T08:37:28;100880.22;;;1.77;77.24
76128;BME280;64873;50.102;14.434;2023-02-15T08:39:53;100885.94;;;2.05;78.51
76128;BME280;64873;50.102;14.434;2023-02-15T08:42:18;100888.56;;;2.05;78.07
76128;BME280;64873;50.102;14.434;2023-02-15T08:44:46;100884.25;;;2.15;74.44
76128;BME280;64873;50.102;14.434;2023-02-15T08:47:11;100877.81;;;1.85;75.16
76128;BME280;64873;50.102;14.434;2023-02-15T08:49:37;100876.00;;;1.75;75.13
76128;BME280;64873;50.102;14.434;2023-02-15T08:52:02;100886.44;;;1.87;75.17
76128;BME280;64873;50.102;14.434;2023-02-15T08:54:28;100876.72;;;1.99;75.56
76128;BME280;64873;50.102;14.434;2023-02-15T08:56:53;100878.97;;;2.04;75.49
76128;BME280;64873;50.102;14.434;2023-02-15T08:59:21;100871.69;;;2.07;75.68
76128;BME280;64873;50.102;14.434;2023-02-15T09:01:48;100866.56;;;1.72;75.53
76128;BME280;64873;50.102;14.434;2023-02-15T09:04:15;100870.53;;;1.78;76.91
76128;BME280;64873;50.102;14.434;2023-02-15T09:06:41;100866.78;;;2.03;76.32
76128;BME280;64873;50.102;14.434;2023-02-15T09:09:08;100878.06;;;1.82;75.89
76128;BME280;64873;50.102;14.434;2023-02-15T09:11:36;100869.19;;;1.61;76.64
76128;BME280;64873;50.102;14.434;2023-02-15T09:14:10;100877.72;;;1.53;78.01
76128;BME280;64873;50.102;14.434;2023-02-15T09:16:39;100868.59;;;1.35;76.69
76128;BME280;64873;50.102;14.434;2023-02-15T09:19:05;100869.97;;;1.17;77.39
76128;BME280;64873;50.102;14.434;2023-02-15T09:21:33;100882.34;;;1.27;77.76
76128;BME280;64873;50.102;14.434;2023-02-15T09:24:01;100880.44;;;1.29;77.77
76128;BME280;64873;50.102;14.434;2023-02-15T09:26:29;100865.69;;;1.27;77.76
76128;BME280;64873;50.102;14.434;2023-02-15T09:28:57;100866.41;;;1.40;77.24
76128;BME280;64873;50.102;14.434;2023-02-15T09:31:26;100873.00;;;1.34;77.57
76128;BME280;64873;50.102;14.434;2023-02-15T09:33:52;100867.75;;;1.57;77.36
76128;BME280;64873;50.102;14.434;2023-02-15T09:36:30;100866.34;;;1.53;76.66
76128;BME280;64873;50.102;14.434;2023-02-15T09:39:02;100862.94;;;1.96;76.12
76128;BME280;64873;50.102;14.434;2023-02-15T09:47:31;100847.38;;;2.47;74.17
76128;BME280;64873;50.102;14.434;2023-02-15T09:50:06;100855.88;;;1.85;74.72
76128;BME280;64873;50.102;14.434;2023-02-15T10:03:12;100856.09;;;2.04;74.23
76128;BME280;64873;50.102;14.434;2023-02-15T10:08:51;100860.59;;;2.36;74.25
76128;BME280;64873;50.102;14.434;2023-02-15T10:26:18;100852.78;;;2.34;76.00
76128;BME280;64873;50.102;14.434;2023-02-15T10:29:01;100859.22;;;1.87;73.81
76128;BME280;64873;50.102;14.434;2023-02-15T10:39:56;100854.06;;;1.97;74.00
76128;BME280;64873;50.102;14.434;2023-02-15T10:48:16;100837.53;;;2.38;75.41
76128;BME280;64873;50.102;14.434;2023-02-15T10:50:51;100829.19;;;2.65;72.36
76128;BME280;64873;50.102;14.434;2023-02-15T10:56:25;100830.72;;;2.88;71.66
76128;BME280;64873;50.102;14.434;2023-02-15T10:59:18;100826.47;;;2.76;71.74
76128;BME280;64873;50.102;14.434;2023-02-15T11:06:47;100809.28;;;2.82;71.93
76128;BME280;64873;50.102;14.434;2023-02-15T11:09:15;100809.78;;;2.97;70.71
76128;BME280;64873;50.102;14.434;2023-02-15T11:11:45;100812.16;;;2.58;72.21
76128;BME280;64873;50.102;14.434;2023-02-15T11:17:05;100805.38;;;2.76;72.10
76128;BME280;64873;50.102;14.434;2023-02-15T11:19:38;100803.91;;;2.51;72.20
76128;BME280;64873;50.102;14.434;2023-02-15T11:22:10;100806.31;;;2.54;73.64
76128;BME280;64873;50.102;14.434;2023-02-15T11:24:43;100809.03;;;2.00;73.61
76128;BME280;64873;50.102;14.434;2023-02-15T11:27:20;100811.72;;;1.77;74.51
76128;BME280;64873;50.102;14.434;2023-02-15T11:30:15;100798.91;;;2.48;73.48
76128;BME280;64873;50.102;14.434;2023-02-15T11:32:43;100793.47;;;1.85;74.00
76128;BME280;64873;50.102;14.434;2023-02-15T11:42:47;100785.47;;;2.72;71.96
76128;BME280;64873;50.102;14.434;2023-02-15T11:45:27;100787.59;;;2.78;72.00
76128;BME280;64873;50.102;14.434;2023-02-15T11:47:54;100779.66;;;2.99;71.07
76128;BME280;64873;50.102;14.434;2023-02-15T11:50:23;100776.97;;;3.20;70.75
76128;BME280;64873;50.102;14.434;2023-02-15T11:52:51;100773.09;;;3.24;69.77
76128;BME280;64873;50.102;14.434;2023-02-15T11:55:21;100761.19;;;2.78;71.63
76128;BME280;64873;50.102;14.434;2023-02-15T11:57:54;100768.97;;;2.80;71.76
76128;BME280;64873;50.102;14.434;2023-02-15T12:00:33;100770.84;;;2.47;71.93
76128;BME280;64873;50.102;14.434;2023-02-15T12:03:06;100762.44;;;2.21;73.60
76128;BME280;64873;50.102;14.434;2023-02-15T12:05:36;100755.50;;;2.20;73.63
76128;BME280;64873;50.102;14.434;2023-02-15T12:08:12;100755.66;;;2.60;72.42
76128;BME280;64873;50.102;14.434;2023-02-15T12:10:46;100747.84;;;3.01;71.01
76128;BME280;64873;50.102;14.434;2023-02-15T12:13:18;100757.78;;;3.18;70.15
76128;BME280;64873;50.102;14.434;2023-02-15T12:15:46;100746.09;;;3.11;70.22
76128;BME280;64873;50.102;14.434;2023-02-15T12:21:05;100730.84;;;2.10;73.47
76128;BME280;64873;50.102;14.434;2023-02-15T12:23:32;100734.34;;;2.31;72.87
76128;BME280;64873;50.102;14.434;2023-02-15T12:25:59;100733.00;;;2.37;72.55
76128;BME280;64873;50.102;14.434;2023-02-15T12:28:30;100722.63;;;2.45;72.66
76128;BME280;64873;50.102;14.434;2023-02-15T12:30:58;100731.97;;;3.31;70.38
76128;BME280;64873;50.102;14.434;2023-02-15T12:35:59;100716.44;;;3.47;69.60
76128;BME280;64873;50.102;14.434;2023-02-15T12:38:27;100712.69;;;3.50;69.70
76128;BME280;64873;50.102;14.434;2023-02-15T12:41:02;100708.69;;;3.75;69.08
76128;BME280;64873;50.102;14.434;2023-02-15T12:43:33;100713.03;;;3.76;68.44
76128;BME280;64873;50.102;14.434;2023-02-15T12:48:39;100708.91;;;3.43;69.48
76128;BME280;64873;50.102;14.434;2023-02-15T12:51:09;100700.41;;;3.30;70.56
76128;BME280;64873;50.102;14.434;2023-02-15T12:53:36;100701.00;;;3.03;70.26
76128;BME280;64873;50.102;14.434;2023-02-15T12:56:04;100698.44;;;2.91;70.89
76128;BME280;64873;50.102;14.434;2023-02-15T12:58:34;100701.09;;;2.91;71.09
76128;BME280;64873;50.102;14.434;2023-02-15T13:01:14;100689.50;;;3.73;71.59
76128;BME280;64873;50.102;14.434;2023-02-15T13:04:04;100690.88;;;3.08;70.37
76128;BME280;64873;50.102;14.434;2023-02-15T13:06:35;100688.47;;;3.35;70.26
76128;BME280;64873;50.102;14.434;2023-02-15T13:09:15;100693.69;;;3.76;69.11
76128;BME280;64873;50.102;14.434;2023-02-15T13:11:43;100681.78;;;2.60;71.30
76128;BME280;64873;50.102;14.434;2023-02-15T13:16:45;100679.44;;;3.57;70.06
76128;BME280;64873;50.102;14.434;2023-02-15T13:19:22;100685.34;;;3.99;68.60
76128;BME280;64873;50.102;14.434;2023-02-15T13:21:52;100675.44;;;3.92;67.93
76128;BME280;64873;50.102;14.434;2023-02-15T13:24:22;100670.56;;;3.68;68.54
76128;BME280;64873;50.102;14.434;2023-02-15T13:26:49;100674.84;;;3.50;69.73
76128;BME280;64873;50.102;14.434;2023-02-15T13:29:24;100673.88;;;3.51;68.68
76128;BME280;64873;50.102;14.434;2023-02-15T13:31:51;100680.00;;;3.01;70.38
76128;BME280;64873;50.102;14.434;2023-02-15T13:34:25;100674.66;;;3.22;69.93
76128;BME280;64873;50.102;14.434;2023-02-15T13:39:45;100666.84;;;2.50;72.09
76128;BME280;64873;50.102;14.434;2023-02-15T13:48:01;100667.50;;;2.42;72.55
76128;BME280;64873;50.102;14.434;2023-02-15T13:50:52;100666.63;;;2.62;72.46
76128;BME280;64873;50.102;14.434;2023-02-15T13:56:34;100653.34;;;2.64;72.76
76128;BME280;64873;50.102;14.434;2023-02-15T14:01:52;100650.19;;;3.20;71.26
76128;BME280;64873;50.102;14.434;2023-02-15T14:04:37;100654.91;;;2.76;72.16
76128;BME280;64873;50.102;14.434;2023-02-15T14:24:24;100654.69;;;2.58;72.53
76128;BME280;64873;50.102;14.434;2023-02-15T14:27:39;100659.22;;;2.77;72.80
76128;BME280;64873;50.102;14.434;2023-02-15T14:30:24;100652.69;;;2.81;73.04
76128;BME280;64873;50.102;14.434;2023-02-15T14:32:54;100641.13;;;2.73;72.62
76128;BME280;64873;50.102;14.434;2023-02-15T14:35:27;100646.72;;;2.79;72.26
76128;BME280;64873;50.102;14.434;2023-02-15T14:48:49;100637.69;;;2.51;73.03
76128;BME280;64873;50.102;14.434;2023-02-15T15:00:24;100635.03;;;2.42;73.57
76128;BME280;64873;50.102;14.434;2023-02-15T15:02:17;100634.22;;;2.51;73.38
76128;BME280;64873;50.102;14.434;2023-02-15T15:05:06;100633.66;;;2.47;73.18
76128;BME280;64873;50.102;14.434;2023-02-15T15:15:12;100638.09;;;2.77;72.51
76128;BME280;64873;50.102;14.434;2023-02-15T15:20:11;100636.63;;;2.63;72.74
76128;BME280;64873;50.102;14.434;2023-02-15T15:22:42;100638.00;;;2.58;73.34
76128;BME280;64873;50.102;14.434;2023-02-15T15:25:56;100632.72;;;2.58;72.86
76128;BME280;64873;50.102;14.434;2023-02-15T15:27:56;100623.94;;;2.48;73.30
76128;BME280;64873;50.102;14.434;2023-02-15T15:47:13;100603.28;;;2.53;75.18
76128;BME280;64873;50.102;14.434;2023-02-15T15:49:45;100605.03;;;2.43;73.77
76128;BME280;64873;50.102;14.434;2023-02-15T15:52:19;100613.72;;;2.33;73.58
76128;BME280;64873;50.102;14.434;2023-02-15T15:54:51;100610.00;;;2.36;73.30
76128;BME280;64873;50.102;14.434;2023-02-15T15:57:37;100603.06;;;2.14;74.61
76128;BME280;64873;50.102;14.434;2023-02-15T16:00:04;100614.75;;;2.21;73.90